sensor_id;sensor_type;location;lat;lon;timestamp;temperature;humidity
19941;DHT22;10132;50.864;5.176;2024-03-29T00:00:05;9.50;99.90
19941;DHT22;10132;50.864;5.176;2024-03-29T00:02:06;9.40;99.90
19941;DHT22;10132;50.864;5.176;2024-03-29T00:04:07;9.40;99.90
19941;DHT22;10132;50.864;5.176;2024-03-29T00:06:08;9.40;99.90
19941;DHT22;10132;50.864;5.176;2024-03-29T00:08:09;9.40;99.90
19941;DHT22;10132;50.864;5.176;2024-03-29T00:10:10;9.30;99.90
19941;DHT22;10132;50.864;5.176;2024-03-29T00:12:11;9.30;99.90
19941;DHT22;10132;50.864;5.176;2024-03-29T00:14:12;9.30;99.90
19941;DHT22;10132;50.864;5.176;2024-03-29T00:16:14;9.30;99.90
19941;DHT22;10132;50.864;5.176;2024-03-29T00:18:15;9.20;99.90
19941;DHT22;10132;50.864;5.176;2024-03-29T00:20:16;9.20;99.90
19941;DHT22;10132;50.864;5.176;2024-03-29T00:22:17;9.20;99.90
19941;DHT22;10132;50.864;5.176;2024-03-29T00:24:18;9.20;99.90
19941;DHT22;10132;50.864;5.176;2024-03-29T00:26:20;9.30;99.90
19941;DHT22;10132;50.864;5.176;2024-03-29T00:28:20;9.30;99.90
19941;DHT22;10132;50.864;5.176;2024-03-29T00:30:21;9.30;99.90
19941;DHT22;10132;50.864;5.176;2024-03-29T00:32:25;9.30;99.90
19941;DHT22;10132;50.864;5.176;2024-03-29T00:34:26;9.30;99.90
19941;DHT22;10132;50.864;5.176;2024-03-29T00:36:27;9.40;99.90
19941;DHT22;10132;50.864;5.176;2024-03-29T00:38:28;9.40;99.90
19941;DHT22;10132;50.864;5.176;2024-03-29T00:40:29;9.40;99.90
19941;DHT22;10132;50.864;5.176;2024-03-29T00:42:30;9.50;99.90
19941;DHT22;10132;50.864;5.176;2024-03-29T00:44:31;9.50;99.90
19941;DHT22;10132;50.864;5.176;2024-03-29T00:46:32;9.60;99.90
19941;DHT22;10132;50.864;5.176;2024-03-29T00:48:34;9.60;99.90
19941;DHT22;10132;50.864;5.176;2024-03-29T00:50:35;9.60;99.90
19941;DHT22;10132;50.864;5.176;2024-03-29T00:52:37;9.60;99.90
19941;DHT22;10132;50.864;5.176;2024-03-29T00:54:38;9.60;99.90
19941;DHT22;10132;50.864;5.176;2024-03-29T00:56:39;9.60;99.90
19941;DHT22;10132;50.864;5.176;2024-03-29T00:58:40;9.60;99.90
19941;DHT22;10132;50.864;5.176;2024-03-29T01:00:41;9.60;99.90
19941;DHT22;10132;50.864;5.176;2024-03-29T01:02:42;9.60;99.90
19941;DHT22;10132;50.864;5.176;2024-03-29T01:04:44;9.60;99.90
19941;DHT22;10132;50.864;5.176;2024-03-29T01:06:46;9.60;99.90
19941;DHT22;10132;50.864;5.176;2024-03-29T01:08:46;9.70;99.90
19941;DHT22;10132;50.864;5.176;2024-03-29T01:10:48;9.70;99.90
19941;DHT22;10132;50.864;5.176;2024-03-29T01:12:49;9.70;99.90
19941;DHT22;10132;50.864;5.176;2024-03-29T01:14:50;9.70;99.90
19941;DHT22;10132;50.864;5.176;2024-03-29T01:16:51;9.70;99.90
19941;DHT22;10132;50.864;5.176;2024-03-29T01:18:52;9.80;99.90
19941;DHT22;10132;50.864;5.176;2024-03-29T01:20:55;9.80;99.90
19941;DHT22;10132;50.864;5.176;2024-03-29T01:22:56;9.80;99.90
19941;DHT22;10132;50.864;5.176;2024-03-29T01:24:57;9.80;99.90
19941;DHT22;10132;50.864;5.176;2024-03-29T01:26:58;9.70;99.90
19941;DHT22;10132;50.864;5.176;2024-03-29T01:28:59;9.80;99.90
19941;DHT22;10132;50.864;5.176;2024-03-29T01:31:00;9.70;99.90
19941;DHT22;10132;50.864;5.176;2024-03-29T01:33:01;9.80;99.90
19941;DHT22;10132;50.864;5.176;2024-03-29T01:35:03;9.90;99.90
19941;DHT22;10132;50.864;5.176;2024-03-29T01:37:05;9.90;99.90
19941;DHT22;10132;50.864;5.176;2024-03-29T01:39:06;10.00;99.90
19941;DHT22;10132;50.864;5.176;2024-03-29T01:41:07;10.10;99.90
19941;DHT22;10132;50.864;5.176;2024-03-29T01:43:08;10.10;99.90
19941;DHT22;10132;50.864;5.176;2024-03-29T01:45:10;10.20;99.90
19941;DHT22;10132;50.864;5.176;2024-03-29T01:47:12;10.20;99.90
19941;DHT22;10132;50.864;5.176;2024-03-29T01:49:14;10.20;99.90
19941;DHT22;10132;50.864;5.176;2024-03-29T01:51:17;10.20;99.90
19941;DHT22;10132;50.864;5.176;2024-03-29T01:53:21;10.10;99.90
19941;DHT22;10132;50.864;5.176;2024-03-29T01:55:23;10.10;99.90
19941;DHT22;10132;50.864;5.176;2024-03-29T01:57:26;10.20;99.90
19941;DHT22;10132;50.864;5.176;2024-03-29T01:59:30;10.20;99.90
19941;DHT22;10132;50.864;5.176;2024-03-29T02:01:32;10.20;99.90
19941;DHT22;10132;50.864;5.176;2024-03-29T02:03:34;10.20;99.90
19941;DHT22;10132;50.864;5.176;2024-03-29T02:05:36;10.20;99.90
19941;DHT22;10132;50.864;5.176;2024-03-29T02:07:38;10.20;99.90
19941;DHT22;10132;50.864;5.176;2024-03-29T02:09:41;10.20;99.90
19941;DHT22;10132;50.864;5.176;2024-03-29T02:11:42;10.20;99.90
19941;DHT22;10132;50.864;5.176;2024-03-29T02:13:45;10.10;99.90
19941;DHT22;10132;50.864;5.176;2024-03-29T02:15:47;10.10;99.90
19941;DHT22;10132;50.864;5.176;2024-03-29T02:17:49;10.10;99.90
19941;DHT22;10132;50.864;5.176;2024-03-29T02:19:51;10.10;99.90
19941;DHT22;10132;50.864;5.176;2024-03-29T02:21:56;10.00;99.90
19941;DHT22;10132;50.864;5.176;2024-03-29T02:24:05;9.90;99.90
19941;DHT22;10132;50.864;5.176;2024-03-29T02:26:07;9.80;99.90
19941;DHT22;10132;50.864;5.176;2024-03-29T02:28:09;9.80;99.90
19941;DHT22;10132;50.864;5.176;2024-03-29T02:30:13;9.80;99.90
19941;DHT22;10132;50.864;5.176;2024-03-29T02:32:16;9.70;99.90
19941;DHT22;10132;50.864;5.176;2024-03-29T02:34:18;9.60;99.90
19941;DHT22;10132;50.864;5.176;2024-03-29T02:36:19;9.50;99.90
19941;DHT22;10132;50.864;5.176;2024-03-29T02:38:21;9.40;99.90
19941;DHT22;10132;50.864;5.176;2024-03-29T02:40:24;9.30;99.90
19941;DHT22;10132;50.864;5.176;2024-03-29T02:42:26;9.20;99.90
19941;DHT22;10132;50.864;5.176;2024-03-29T02:44:27;9.10;99.90
19941;DHT22;10132;50.864;5.176;2024-03-29T02:46:29;9.10;99.90
19941;DHT22;10132;50.864;5.176;2024-03-29T02:48:30;9.00;99.90
19941;DHT22;10132;50.864;5.176;2024-03-29T02:50:32;8.90;99.90
19941;DHT22;10132;50.864;5.176;2024-03-29T02:52:34;8.70;99.90
19941;DHT22;10132;50.864;5.176;2024-03-29T02:54:36;8.70;99.90
19941;DHT22;10132;50.864;5.176;2024-03-29T02:56:38;8.60;99.90
19941;DHT22;10132;50.864;5.176;2024-03-29T02:58:40;8.60;99.90
19941;DHT22;10132;50.864;5.176;2024-03-29T03:00:41;8.60;99.90
19941;DHT22;10132;50.864;5.176;2024-03-29T03:02:43;8.50;99.90
19941;DHT22;10132;50.864;5.176;2024-03-29T03:04:44;8.40;99.90
19941;DHT22;10132;50.864;5.176;2024-03-29T03:06:46;8.40;99.90
19941;DHT22;10132;50.864;5.176;2024-03-29T03:08:47;8.40;99.90
19941;DHT22;10132;50.864;5.176;2024-03-29T03:11:06;8.30;99.90
19941;DHT22;10132;50.864;5.176;2024-03-29T03:13:10;8.20;99.90
19941;DHT22;10132;50.864;5.176;2024-03-29T03:15:11;8.30;99.90
19941;DHT22;10132;50.864;5.176;2024-03-29T03:17:13;8.20;99.90
19941;DHT22;10132;50.864;5.176;2024-03-29T03:19:14;8.30;99.90
19941;DHT22;10132;50.864;5.176;2024-03-29T03:21:15;8.10;99.90
19941;DHT22;10132;50.864;5.176;2024-03-29T03:23:16;8.20;99.90
19941;DHT22;10132;50.864;5.176;2024-03-29T03:25:18;8.20;99.90
19941;DHT22;10132;50.864;5.176;2024-03-29T03:27:19;8.30;99.90
19941;DHT22;10132;50.864;5.176;2024-03-29T03:29:24;8.30;99.90
19941;DHT22;10132;50.864;5.176;2024-03-29T03:31:25;8.40;99.90
19941;DHT22;10132;50.864;5.176;2024-03-29T03:33:27;8.40;99.90
19941;DHT22;10132;50.864;5.176;2024-03-29T03:35:28;8.40;99.90
19941;DHT22;10132;50.864;5.176;2024-03-29T03:37:30;8.40;99.90
19941;DHT22;10132;50.864;5.176;2024-03-29T03:39:31;8.40;99.90
19941;DHT22;10132;50.864;5.176;2024-03-29T03:41:33;8.50;99.90
19941;DHT22;10132;50.864;5.176;2024-03-29T03:43:34;8.40;99.90
19941;DHT22;10132;50.864;5.176;2024-03-29T03:45:39;8.30;99.90
19941;DHT22;10132;50.864;5.176;2024-03-29T03:47:40;8.30;99.90
19941;DHT22;10132;50.864;5.176;2024-03-29T03:49:42;8.30;99.90
19941;DHT22;10132;50.864;5.176;2024-03-29T03:51:43;8.40;99.90
19941;DHT22;10132;50.864;5.176;2024-03-29T03:53:45;8.40;99.90
19941;DHT22;10132;50.864;5.176;2024-03-29T03:55:46;8.30;99.90
19941;DHT22;10132;50.864;5.176;2024-03-29T03:57:48;8.40;99.90
19941;DHT22;10132;50.864;5.176;2024-03-29T03:59:49;8.30;99.90
19941;DHT22;10132;50.864;5.176;2024-03-29T04:01:53;8.30;99.90
19941;DHT22;10132;50.864;5.176;2024-03-29T04:03:55;8.40;99.90
19941;DHT22;10132;50.864;5.176;2024-03-29T04:05:57;8.50;99.90
19941;DHT22;10132;50.864;5.176;2024-03-29T04:07:58;8.60;99.90
19941;DHT22;10132;50.864;5.176;2024-03-29T04:10:00;8.50;99.90
19941;DHT22;10132;50.864;5.176;2024-03-29T04:12:01;8.50;99.90
19941;DHT22;10132;50.864;5.176;2024-03-29T04:14:02;8.60;99.90
19941;DHT22;10132;50.864;5.176;2024-03-29T04:16:05;8.60;99.90
19941;DHT22;10132;50.864;5.176;2024-03-29T04:18:07;8.50;99.90
19941;DHT22;10132;50.864;5.176;2024-03-29T04:20:10;8.50;99.90
19941;DHT22;10132;50.864;5.176;2024-03-29T04:22:11;8.40;99.90
19941;DHT22;10132;50.864;5.176;2024-03-29T04:24:13;8.50;99.90
19941;DHT22;10132;50.864;5.176;2024-03-29T04:26:14;8.60;99.90
19941;DHT22;10132;50.864;5.176;2024-03-29T04:28:16;8.50;99.90
19941;DHT22;10132;50.864;5.176;2024-03-29T04:30:17;8.50;99.90
19941;DHT22;10132;50.864;5.176;2024-03-29T04:32:19;8.60;99.90
19941;DHT22;10132;50.864;5.176;2024-03-29T04:34:21;8.50;99.90
19941;DHT22;10132;50.864;5.176;2024-03-29T04:36:23;8.40;99.90
19941;DHT22;10132;50.864;5.176;2024-03-29T04:38:25;8.40;99.90
19941;DHT22;10132;50.864;5.176;2024-03-29T04:40:27;8.50;99.90
19941;DHT22;10132;50.864;5.176;2024-03-29T04:42:27;8.60;99.90
19941;DHT22;10132;50.864;5.176;2024-03-29T04:44:29;8.70;99.90
19941;DHT22;10132;50.864;5.176;2024-03-29T04:46:32;8.60;99.90
19941;DHT22;10132;50.864;5.176;2024-03-29T04:48:33;8.60;99.90
19941;DHT22;10132;50.864;5.176;2024-03-29T04:50:37;8.50;99.90
19941;DHT22;10132;50.864;5.176;2024-03-29T04:52:39;8.50;99.90
19941;DHT22;10132;50.864;5.176;2024-03-29T04:54:41;8.60;99.90
19941;DHT22;10132;50.864;5.176;2024-03-29T04:56:44;8.60;99.90
19941;DHT22;10132;50.864;5.176;2024-03-29T04:58:46;8.50;99.90
19941;DHT22;10132;50.864;5.176;2024-03-29T05:00:49;8.60;99.90
19941;DHT22;10132;50.864;5.176;2024-03-29T05:02:51;8.50;99.90
19941;DHT22;10132;50.864;5.176;2024-03-29T05:04:52;8.60;99.90
19941;DHT22;10132;50.864;5.176;2024-03-29T05:06:58;8.60;99.90
19941;DHT22;10132;50.864;5.176;2024-03-29T05:09:00;8.60;99.90
19941;DHT22;10132;50.864;5.176;2024-03-29T05:11:02;8.60;99.90
19941;DHT22;10132;50.864;5.176;2024-03-29T05:13:03;8.60;99.90
19941;DHT22;10132;50.864;5.176;2024-03-29T05:15:06;8.50;99.90
19941;DHT22;10132;50.864;5.176;2024-03-29T05:17:09;8.50;99.90
19941;DHT22;10132;50.864;5.176;2024-03-29T05:19:11;8.60;99.90
19941;DHT22;10132;50.864;5.176;2024-03-29T05:21:13;8.60;99.90
19941;DHT22;10132;50.864;5.176;2024-03-29T05:23:16;8.60;99.90
19941;DHT22;10132;50.864;5.176;2024-03-29T05:25:18;8.60;99.90
19941;DHT22;10132;50.864;5.176;2024-03-29T05:27:20;8.70;99.90
19941;DHT22;10132;50.864;5.176;2024-03-29T05:29:22;8.70;99.90
19941;DHT22;10132;50.864;5.176;2024-03-29T05:31:24;8.70;99.90
19941;DHT22;10132;50.864;5.176;2024-03-29T05:33:27;8.60;99.90
19941;DHT22;10132;50.864;5.176;2024-03-29T05:35:28;8.70;99.90
19941;DHT22;10132;50.864;5.176;2024-03-29T05:37:30;8.60;99.90
19941;DHT22;10132;50.864;5.176;2024-03-29T05:39:33;8.60;99.90
19941;DHT22;10132;50.864;5.176;2024-03-29T05:41:35;8.50;99.90
19941;DHT22;10132;50.864;5.176;2024-03-29T05:43:38;8.40;99.90
19941;DHT22;10132;50.864;5.176;2024-03-29T05:45:41;8.50;99.90
19941;DHT22;10132;50.864;5.176;2024-03-29T05:47:43;8.60;99.90
19941;DHT22;10132;50.864;5.176;2024-03-29T05:49:45;8.70;99.90
19941;DHT22;10132;50.864;5.176;2024-03-29T05:51:47;8.70;99.90
19941;DHT22;10132;50.864;5.176;2024-03-29T05:53:48;8.60;99.90
19941;DHT22;10132;50.864;5.176;2024-03-29T05:55:52;8.60;99.90
19941;DHT22;10132;50.864;5.176;2024-03-29T05:57:53;8.70;99.90
19941;DHT22;10132;50.864;5.176;2024-03-29T05:59:55;8.80;99.90
19941;DHT22;10132;50.864;5.176;2024-03-29T06:01:56;8.70;99.90
19941;DHT22;10132;50.864;5.176;2024-03-29T06:03:58;8.70;99.90
19941;DHT22;10132;50.864;5.176;2024-03-29T06:06:05;8.70;99.90
19941;DHT22;10132;50.864;5.176;2024-03-29T06:08:08;8.70;99.90
19941;DHT22;10132;50.864;5.176;2024-03-29T06:10:09;8.70;99.90
19941;DHT22;10132;50.864;5.176;2024-03-29T06:12:13;8.80;99.90
19941;DHT22;10132;50.864;5.176;2024-03-29T06:14:15;8.90;99.90
19941;DHT22;10132;50.864;5.176;2024-03-29T06:16:34;8.90;99.90
19941;DHT22;10132;50.864;5.176;2024-03-29T06:18:54;8.90;99.90
19941;DHT22;10132;50.864;5.176;2024-03-29T06:20:56;9.00;99.90
19941;DHT22;10132;50.864;5.176;2024-03-29T06:22:57;9.10;99.90
19941;DHT22;10132;50.864;5.176;2024-03-29T06:24:59;9.20;99.90
19941;DHT22;10132;50.864;5.176;2024-03-29T06:27:05;9.20;99.90
19941;DHT22;10132;50.864;5.176;2024-03-29T06:29:08;9.30;99.90
19941;DHT22;10132;50.864;5.176;2024-03-29T06:31:10;9.20;99.90
19941;DHT22;10132;50.864;5.176;2024-03-29T06:33:12;9.30;99.90
19941;DHT22;10132;50.864;5.176;2024-03-29T06:35:14;9.30;99.90
19941;DHT22;10132;50.864;5.176;2024-03-29T06:37:16;9.40;99.90
19941;DHT22;10132;50.864;5.176;2024-03-29T06:39:17;9.40;99.90
19941;DHT22;10132;50.864;5.176;2024-03-29T06:41:20;9.40;99.90
19941;DHT22;10132;50.864;5.176;2024-03-29T06:43:22;9.30;99.90
19941;DHT22;10132;50.864;5.176;2024-03-29T06:45:26;9.40;99.90
19941;DHT22;10132;50.864;5.176;2024-03-29T06:47:28;9.40;99.90
19941;DHT22;10132;50.864;5.176;2024-03-29T06:49:30;9.50;99.90
19941;DHT22;10132;50.864;5.176;2024-03-29T06:51:32;9.50;99.90
19941;DHT22;10132;50.864;5.176;2024-03-29T06:53:34;9.60;99.90
19941;DHT22;10132;50.864;5.176;2024-03-29T06:55:38;9.70;99.90
19941;DHT22;10132;50.864;5.176;2024-03-29T06:57:40;9.80;99.90
19941;DHT22;10132;50.864;5.176;2024-03-29T06:59:42;9.90;99.90
19941;DHT22;10132;50.864;5.176;2024-03-29T07:01:46;10.00;99.90
19941;DHT22;10132;50.864;5.176;2024-03-29T07:03:48;10.10;99.90
19941;DHT22;10132;50.864;5.176;2024-03-29T07:05:50;10.00;99.90
19941;DHT22;10132;50.864;5.176;2024-03-29T07:07:52;9.80;99.90
19941;DHT22;10132;50.864;5.176;2024-03-29T07:09:55;9.80;99.90
19941;DHT22;10132;50.864;5.176;2024-03-29T07:11:56;9.70;99.90
19941;DHT22;10132;50.864;5.176;2024-03-29T07:13:59;9.80;99.90
19941;DHT22;10132;50.864;5.176;2024-03-29T07:16:01;9.80;99.90
19941;DHT22;10132;50.864;5.176;2024-03-29T07:18:05;9.70;99.90
19941;DHT22;10132;50.864;5.176;2024-03-29T07:20:07;9.70;99.90
19941;DHT22;10132;50.864;5.176;2024-03-29T07:22:10;9.80;99.90
19941;DHT22;10132;50.864;5.176;2024-03-29T07:24:12;9.70;99.90
19941;DHT22;10132;50.864;5.176;2024-03-29T07:26:13;9.70;99.90
19941;DHT22;10132;50.864;5.176;2024-03-29T07:28:15;9.70;99.90
19941;DHT22;10132;50.864;5.176;2024-03-29T07:30:17;9.80;99.90
19941;DHT22;10132;50.864;5.176;2024-03-29T07:32:18;10.00;99.90
19941;DHT22;10132;50.864;5.176;2024-03-29T07:34:21;10.20;99.90
19941;DHT22;10132;50.864;5.176;2024-03-29T07:36:23;10.30;99.90
19941;DHT22;10132;50.864;5.176;2024-03-29T07:38:27;10.50;99.90
19941;DHT22;10132;50.864;5.176;2024-03-29T07:40:29;10.50;99.90
19941;DHT22;10132;50.864;5.176;2024-03-29T07:42:31;10.50;99.90
19941;DHT22;10132;50.864;5.176;2024-03-29T07:44:32;10.60;99.90
19941;DHT22;10132;50.864;5.176;2024-03-29T07:46:35;10.50;99.90
19941;DHT22;10132;50.864;5.176;2024-03-29T07:48:38;10.40;99.90
19941;DHT22;10132;50.864;5.176;2024-03-29T07:50:42;10.60;99.90
19941;DHT22;10132;50.864;5.176;2024-03-29T07:52:45;10.70;99.90
19941;DHT22;10132;50.864;5.176;2024-03-29T07:54:47;10.70;99.90
19941;DHT22;10132;50.864;5.176;2024-03-29T07:56:49;10.70;99.90
19941;DHT22;10132;50.864;5.176;2024-03-29T07:58:51;10.60;99.90
19941;DHT22;10132;50.864;5.176;2024-03-29T08:00:53;10.60;99.90
19941;DHT22;10132;50.864;5.176;2024-03-29T08:02:55;10.70;99.90
19941;DHT22;10132;50.864;5.176;2024-03-29T08:04:57;10.80;99.90
19941;DHT22;10132;50.864;5.176;2024-03-29T08:07:01;10.80;99.90
19941;DHT22;10132;50.864;5.176;2024-03-29T08:09:03;10.80;99.90
19941;DHT22;10132;50.864;5.176;2024-03-29T08:11:05;10.80;99.90
19941;DHT22;10132;50.864;5.176;2024-03-29T08:13:08;11.00;99.90
19941;DHT22;10132;50.864;5.176;2024-03-29T08:15:10;10.80;99.90
19941;DHT22;10132;50.864;5.176;2024-03-29T08:17:12;10.90;99.90
19941;DHT22;10132;50.864;5.176;2024-03-29T08:19:14;11.00;99.90
19941;DHT22;10132;50.864;5.176;2024-03-29T08:21:16;11.20;99.90
19941;DHT22;10132;50.864;5.176;2024-03-29T08:23:20;11.30;99.90
19941;DHT22;10132;50.864;5.176;2024-03-29T08:25:22;11.50;99.90
19941;DHT22;10132;50.864;5.176;2024-03-29T08:27:24;11.70;99.90
19941;DHT22;10132;50.864;5.176;2024-03-29T08:29:27;11.60;99.90
19941;DHT22;10132;50.864;5.176;2024-03-29T08:31:29;11.50;99.90
19941;DHT22;10132;50.864;5.176;2024-03-29T08:33:31;11.50;99.90
19941;DHT22;10132;50.864;5.176;2024-03-29T08:35:33;11.60;99.90
19941;DHT22;10132;50.864;5.176;2024-03-29T08:37:35;11.60;99.90
19941;DHT22;10132;50.864;5.176;2024-03-29T08:39:38;11.50;99.90
19941;DHT22;10132;50.864;5.176;2024-03-29T08:41:40;11.60;99.90
19941;DHT22;10132;50.864;5.176;2024-03-29T08:43:42;11.70;99.90
19941;DHT22;10132;50.864;5.176;2024-03-29T08:45:44;11.80;99.90
19941;DHT22;10132;50.864;5.176;2024-03-29T08:47:46;11.80;99.90
19941;DHT22;10132;50.864;5.176;2024-03-29T08:49:48;11.90;99.90
19941;DHT22;10132;50.864;5.176;2024-03-29T08:51:50;11.90;99.90
19941;DHT22;10132;50.864;5.176;2024-03-29T08:53:52;11.90;99.90
19941;DHT22;10132;50.864;5.176;2024-03-29T08:55:55;11.90;99.90
19941;DHT22;10132;50.864;5.176;2024-03-29T08:57:57;11.70;99.90
19941;DHT22;10132;50.864;5.176;2024-03-29T08:59:59;11.60;99.90
19941;DHT22;10132;50.864;5.176;2024-03-29T09:02:04;11.60;99.90
19941;DHT22;10132;50.864;5.176;2024-03-29T09:04:06;11.80;99.90
19941;DHT22;10132;50.864;5.176;2024-03-29T09:06:11;11.80;99.90
19941;DHT22;10132;50.864;5.176;2024-03-29T09:08:14;12.00;99.90
19941;DHT22;10132;50.864;5.176;2024-03-29T09:10:17;12.00;99.90
19941;DHT22;10132;50.864;5.176;2024-03-29T09:12:20;12.00;99.90
19941;DHT22;10132;50.864;5.176;2024-03-29T09:14:22;12.10;99.90
19941;DHT22;10132;50.864;5.176;2024-03-29T09:16:24;12.20;99.90
19941;DHT22;10132;50.864;5.176;2024-03-29T09:18:27;12.20;99.90
19941;DHT22;10132;50.864;5.176;2024-03-29T09:20:28;12.10;99.90
19941;DHT22;10132;50.864;5.176;2024-03-29T09:22:30;12.20;99.90
19941;DHT22;10132;50.864;5.176;2024-03-29T09:24:31;12.10;99.90
19941;DHT22;10132;50.864;5.176;2024-03-29T09:26:34;12.30;99.90
19941;DHT22;10132;50.864;5.176;2024-03-29T09:28:39;12.40;99.90
19941;DHT22;10132;50.864;5.176;2024-03-29T09:30:41;12.30;99.90
19941;DHT22;10132;50.864;5.176;2024-03-29T09:32:43;12.30;99.90
19941;DHT22;10132;50.864;5.176;2024-03-29T09:34:45;12.30;99.90
19941;DHT22;10132;50.864;5.176;2024-03-29T09:36:46;12.50;99.90
19941;DHT22;10132;50.864;5.176;2024-03-29T09:38:48;12.60;99.90
19941;DHT22;10132;50.864;5.176;2024-03-29T09:40:55;12.50;99.90
19941;DHT22;10132;50.864;5.176;2024-03-29T09:43:01;12.50;99.90
19941;DHT22;10132;50.864;5.176;2024-03-29T09:45:06;12.50;99.90
19941;DHT22;10132;50.864;5.176;2024-03-29T09:47:09;12.60;99.90
19941;DHT22;10132;50.864;5.176;2024-03-29T09:49:12;12.70;99.90
19941;DHT22;10132;50.864;5.176;2024-03-29T09:51:14;12.70;99.90
19941;DHT22;10132;50.864;5.176;2024-03-29T09:53:16;12.80;99.90
19941;DHT22;10132;50.864;5.176;2024-03-29T09:55:21;13.00;99.90
19941;DHT22;10132;50.864;5.176;2024-03-29T09:57:24;12.90;99.90
19941;DHT22;10132;50.864;5.176;2024-03-29T09:59:30;12.90;99.90
19941;DHT22;10132;50.864;5.176;2024-03-29T10:01:34;13.30;99.90
19941;DHT22;10132;50.864;5.176;2024-03-29T10:03:39;13.20;99.90
19941;DHT22;10132;50.864;5.176;2024-03-29T10:05:41;13.50;99.90
19941;DHT22;10132;50.864;5.176;2024-03-29T10:07:45;13.50;99.90
19941;DHT22;10132;50.864;5.176;2024-03-29T10:09:48;13.60;99.90
19941;DHT22;10132;50.864;5.176;2024-03-29T10:11:51;13.50;99.90
19941;DHT22;10132;50.864;5.176;2024-03-29T10:13:54;13.30;99.90
19941;DHT22;10132;50.864;5.176;2024-03-29T10:15:55;13.40;99.90
19941;DHT22;10132;50.864;5.176;2024-03-29T10:17:59;13.50;99.90
19941;DHT22;10132;50.864;5.176;2024-03-29T10:20:01;13.40;99.90
19941;DHT22;10132;50.864;5.176;2024-03-29T10:22:07;13.50;99.90
19941;DHT22;10132;50.864;5.176;2024-03-29T10:24:12;13.60;99.90
19941;DHT22;10132;50.864;5.176;2024-03-29T10:26:15;13.50;99.90
19941;DHT22;10132;50.864;5.176;2024-03-29T10:28:18;13.40;99.90
19941;DHT22;10132;50.864;5.176;2024-03-29T10:30:20;13.40;99.90
19941;DHT22;10132;50.864;5.176;2024-03-29T10:32:22;13.40;99.90
19941;DHT22;10132;50.864;5.176;2024-03-29T10:34:26;13.40;99.90
19941;DHT22;10132;50.864;5.176;2024-03-29T10:36:28;13.50;99.90
19941;DHT22;10132;50.864;5.176;2024-03-29T10:38:31;13.50;99.90
19941;DHT22;10132;50.864;5.176;2024-03-29T10:40:32;13.60;99.90
19941;DHT22;10132;50.864;5.176;2024-03-29T10:42:36;13.60;99.90
19941;DHT22;10132;50.864;5.176;2024-03-29T10:44:39;13.60;99.90
19941;DHT22;10132;50.864;5.176;2024-03-29T10:46:41;13.70;99.90
19941;DHT22;10132;50.864;5.176;2024-03-29T10:48:46;13.70;99.90
19941;DHT22;10132;50.864;5.176;2024-03-29T10:50:53;14.00;99.90
19941;DHT22;10132;50.864;5.176;2024-03-29T10:52:55;13.80;99.90
19941;DHT22;10132;50.864;5.176;2024-03-29T10:54:58;13.90;99.90
19941;DHT22;10132;50.864;5.176;2024-03-29T10:57:05;13.90;99.90
19941;DHT22;10132;50.864;5.176;2024-03-29T10:59:12;13.80;99.90
19941;DHT22;10132;50.864;5.176;2024-03-29T11:01:20;13.80;99.90
19941;DHT22;10132;50.864;5.176;2024-03-29T11:03:28;13.70;99.90
19941;DHT22;10132;50.864;5.176;2024-03-29T11:05:33;13.60;99.90
19941;DHT22;10132;50.864;5.176;2024-03-29T11:07:40;13.40;99.90
19941;DHT22;10132;50.864;5.176;2024-03-29T11:09:44;13.40;99.90
19941;DHT22;10132;50.864;5.176;2024-03-29T11:11:50;13.50;99.90
19941;DHT22;10132;50.864;5.176;2024-03-29T11:13:56;13.50;99.90
19941;DHT22;10132;50.864;5.176;2024-03-29T11:16:01;13.70;99.90
19941;DHT22;10132;50.864;5.176;2024-03-29T11:18:03;13.70;99.90
19941;DHT22;10132;50.864;5.176;2024-03-29T11:20:07;13.50;99.90
19941;DHT22;10132;50.864;5.176;2024-03-29T11:22:09;13.50;99.90
19941;DHT22;10132;50.864;5.176;2024-03-29T11:24:13;13.40;99.90
19941;DHT22;10132;50.864;5.176;2024-03-29T11:26:16;13.60;99.90
19941;DHT22;10132;50.864;5.176;2024-03-29T11:28:24;13.80;99.90
19941;DHT22;10132;50.864;5.176;2024-03-29T11:30:27;14.00;99.90
19941;DHT22;10132;50.864;5.176;2024-03-29T11:32:37;13.80;99.90
19941;DHT22;10132;50.864;5.176;2024-03-29T11:34:45;13.80;99.90
19941;DHT22;10132;50.864;5.176;2024-03-29T11:36:47;13.80;99.90
19941;DHT22;10132;50.864;5.176;2024-03-29T11:38:51;13.80;99.90
19941;DHT22;10132;50.864;5.176;2024-03-29T11:41:02;13.70;99.90
19941;DHT22;10132;50.864;5.176;2024-03-29T11:43:04;13.50;99.90
19941;DHT22;10132;50.864;5.176;2024-03-29T11:45:06;13.50;99.90
19941;DHT22;10132;50.864;5.176;2024-03-29T11:47:13;13.80;99.90
19941;DHT22;10132;50.864;5.176;2024-03-29T11:49:19;13.80;99.90
19941;DHT22;10132;50.864;5.176;2024-03-29T11:51:22;13.80;99.90
19941;DHT22;10132;50.864;5.176;2024-03-29T11:53:25;13.70;99.90
19941;DHT22;10132;50.864;5.176;2024-03-29T11:55:28;13.70;99.90
19941;DHT22;10132;50.864;5.176;2024-03-29T11:57:31;13.80;99.90
19941;DHT22;10132;50.864;5.176;2024-03-29T11:59:33;14.00;99.90
19941;DHT22;10132;50.864;5.176;2024-03-29T12:01:36;14.50;99.90
19941;DHT22;10132;50.864;5.176;2024-03-29T12:03:41;14.70;99.90
19941;DHT22;10132;50.864;5.176;2024-03-29T12:05:43;14.80;99.90
19941;DHT22;10132;50.864;5.176;2024-03-29T12:07:46;14.80;99.90
19941;DHT22;10132;50.864;5.176;2024-03-29T12:09:48;14.80;99.90
19941;DHT22;10132;50.864;5.176;2024-03-29T12:11:50;15.10;99.90
19941;DHT22;10132;50.864;5.176;2024-03-29T12:13:54;15.20;99.90
19941;DHT22;10132;50.864;5.176;2024-03-29T12:15:55;15.70;99.90
19941;DHT22;10132;50.864;5.176;2024-03-29T12:17:58;15.50;99.90
19941;DHT22;10132;50.864;5.176;2024-03-29T12:19:59;14.90;99.90
19941;DHT22;10132;50.864;5.176;2024-03-29T12:22:05;14.80;99.90
19941;DHT22;10132;50.864;5.176;2024-03-29T12:24:07;14.30;99.90
19941;DHT22;10132;50.864;5.176;2024-03-29T12:26:09;14.20;99.90
19941;DHT22;10132;50.864;5.176;2024-03-29T12:28:11;14.40;99.90
19941;DHT22;10132;50.864;5.176;2024-03-29T12:30:15;14.60;99.90
19941;DHT22;10132;50.864;5.176;2024-03-29T12:32:19;14.80;99.90
19941;DHT22;10132;50.864;5.176;2024-03-29T12:34:21;14.80;99.90
19941;DHT22;10132;50.864;5.176;2024-03-29T12:36:24;14.70;99.90
19941;DHT22;10132;50.864;5.176;2024-03-29T12:38:27;14.50;99.90
19941;DHT22;10132;50.864;5.176;2024-03-29T12:40:32;14.50;99.90
19941;DHT22;10132;50.864;5.176;2024-03-29T12:42:35;14.80;99.90
19941;DHT22;10132;50.864;5.176;2024-03-29T12:44:37;15.10;99.90
19941;DHT22;10132;50.864;5.176;2024-03-29T12:46:41;14.90;99.90
19941;DHT22;10132;50.864;5.176;2024-03-29T12:48:43;15.00;99.90
19941;DHT22;10132;50.864;5.176;2024-03-29T12:50:46;15.30;99.90
19941;DHT22;10132;50.864;5.176;2024-03-29T12:52:47;15.80;99.90
19941;DHT22;10132;50.864;5.176;2024-03-29T12:54:49;15.80;99.90
19941;DHT22;10132;50.864;5.176;2024-03-29T12:56:52;15.70;99.90
19941;DHT22;10132;50.864;5.176;2024-03-29T12:58:54;15.80;99.90